Aérodrome :
LOGIN :

S'inscrire | Disclaimer

   EN    FR    IT 

 










Légende :    VFR   VFR Marginal   IFR   IFR Intensif   IFR Très Intensif
Visi : 
Plafond : 
>= 8 km
>= 3000ft
5 à 8 km
1000 à 3000 ft
1500m à 5 km
500 à 1000 ft
800 à 1500m
200 à 500 ft
< 800m
< 200 ft
Symboles :   Orages  Brouillard  Fortes neiges  Fortes précipitations  Vent > 20 kt
SIGMETs :   Divers  Orages  Givrage  Turbulence  Onde Orograph.  Cendres Volcan.







- Altitude de l'aérodrome : 20 ft


EBFN - Koksijde

DERNIER METAR :
  • 201225Z 22012KT 9999 FEW100 SCT180 11/03 Q1022 BLU BLU

METARs EXPIRÉS :
  • 201155Z 21011KT 9999 FEW100 BKN180 11/03 Q1023 BLU BLU
  • 201125Z 21010KT 9999 FEW100 BKN180 10/04 Q1023 BLU BLU
  • 201055Z 22008KT 9999 FEW100 BKN180 09/05 Q1023 BLU BLU
  • 200955Z 21008KT 9000 FEW100 BKN180 07/04 Q1022 BLU BLU

TAF TAF EBFN
Valide du 20 à 13h jusqu'au 20 à 22h UTC


201141Z 2013/2022 22010KT 9999 FEW025 SCT100
Pas de NOTAMs connus pour ce terrain.



MET'MAP, la Météo Aéronautique d'un coup d'oeil ! - Copyright ORBIFLY Décembre 2007 - Disclaimer

ORBIFLY MET'MAP TEAM :

Programmation & Développement : Alexandra Zaïnal
Conception & Développement : Baudouin d'Aumeries
Co-Programmation & Développement : Marc-Olivier Méhu
Soutien technique & logistique : Manuel Goepfert

Contact : metmap@orbifly.com




SOURCES & CREDITS :

   NOAA